createdAt,value
2022-08-17T00:03:52.582Z,100178.81
2022-08-17T00:06:25.520Z,100180.69
2022-08-17T00:08:56.953Z,100182.69
2022-08-17T00:11:31.945Z,100192.34
2022-08-17T00:14:09.792Z,100185.44
2022-08-17T00:16:55.341Z,100158.19
2022-08-17T00:20:15.900Z,100182.25
2022-08-17T00:22:52.535Z,100163.53
2022-08-17T00:25:23.741Z,100169.78
2022-08-17T00:27:52.441Z,100167.97
2022-08-17T00:30:24.114Z,100174.41
2022-08-17T00:33:26.089Z,100180.84
2022-08-17T00:35:56.889Z,100164.91
2022-08-17T00:38:30.529Z,100177.03
2022-08-17T00:44:00.327Z,100177.56
2022-08-17T00:46:33.581Z,100181.13
2022-08-17T00:52:56.754Z,100161.97
2022-08-17T00:55:30.689Z,100160.41
2022-08-17T00:58:02.107Z,100174.53
2022-08-17T01:00:38.992Z,100157.50
2022-08-17T01:03:09.950Z,100166.34
2022-08-17T01:05:42.308Z,100163.88
2022-08-17T01:08:13.241Z,100167.53
2022-08-17T01:10:59.416Z,100153.13
2022-08-17T01:13:40.426Z,100153.28
2022-08-17T01:16:22.565Z,100144.16
2022-08-17T01:18:53.073Z,100147.81
2022-08-17T01:25:31.886Z,100161.88
2022-08-17T01:28:04.084Z,100149.06
2022-08-17T01:30:57.739Z,100158.91
2022-08-17T01:33:21.188Z,100162.50
2022-08-17T01:35:49.838Z,100136.91
2022-08-17T01:38:27.200Z,100165.63
2022-08-17T01:41:03.140Z,100163.19
2022-08-17T01:43:36.585Z,100160.75
2022-08-17T01:46:06.111Z,100156.03
2022-08-17T01:48:59.865Z,100159.56
2022-08-17T01:51:32.848Z,100169.44
2022-08-17T01:54:07.439Z,100142.41
2022-08-17T01:56:36.394Z,100161.94
2022-08-17T01:59:09.458Z,100154.75
2022-08-17T02:01:39.987Z,100126.44
2022-08-17T02:04:13.400Z,100164.94
2022-08-17T02:06:45.055Z,100163.38
2022-08-17T02:09:19.563Z,100164.28
2022-08-17T02:12:45.356Z,100160.09
2022-08-17T02:15:16.237Z,100157.66
2022-08-17T02:17:45.927Z,100155.72
2022-08-17T02:23:37.892Z,100135.94
2022-08-17T02:26:06.798Z,100147.94
2022-08-17T02:28:35.829Z,100155.09
2022-08-17T02:31:16.496Z,100151.50
2022-08-17T02:33:45.347Z,100151.59
2022-08-17T02:36:27.517Z,100156.78
2022-08-17T02:38:57.076Z,100157.72
2022-08-17T02:41:25.765Z,100156.78
2022-08-17T02:44:00.818Z,100155.81
2022-08-17T02:46:33.369Z,100148.94
2022-08-17T02:49:03.225Z,100170.66
2022-08-17T02:51:35.491Z,100154.09
2022-08-17T02:54:40.129Z,100161.09
2022-08-17T02:57:43.792Z,100156.72
2022-08-17T03:00:39.685Z,100141.97
2022-08-17T03:03:11.106Z,100142.84
2022-08-17T03:05:40.820Z,100166.06
2022-08-17T03:08:14.241Z,100158.94
2022-08-17T03:10:50.579Z,100151.84
2022-08-17T03:13:19.628Z,100162.94
2022-08-17T03:15:49.242Z,100157.59
2022-08-17T03:18:26.363Z,100158.28
2022-08-17T03:20:56.032Z,100162.47
2022-08-17T03:23:25.430Z,100145.84
2022-08-17T03:25:57.531Z,100153.50
2022-08-17T03:28:30.568Z,100121.50
2022-08-17T03:31:24.102Z,100151.84
2022-08-17T03:33:54.952Z,100154.47
2022-08-17T03:36:23.805Z,100141.25
2022-08-17T03:38:52.387Z,100148.00
2022-08-17T03:41:20.991Z,100108.47
2022-08-17T03:43:50.565Z,100141.03
2022-08-17T03:46:41.799Z,100149.34
2022-08-17T03:52:44.567Z,100155.97
2022-08-17T03:55:38.576Z,100156.72
2022-08-17T03:58:07.299Z,100153.03
2022-08-17T04:00:43.626Z,100146.81
2022-08-17T04:03:12.315Z,100128.59
2022-08-17T04:05:42.695Z,100152.28
2022-08-17T04:08:11.996Z,100147.53
2022-08-17T04:10:44.944Z,100123.19
2022-08-17T04:13:24.221Z,100137.41
2022-08-17T04:15:54.648Z,100140.31
2022-08-17T04:18:23.283Z,100139.91
2022-08-17T04:20:54.291Z,100133.72
2022-08-17T04:23:22.939Z,100146.59
2022-08-17T04:25:54.061Z,100140.13
2022-08-17T04:28:22.745Z,100085.03
2022-08-17T04:30:51.425Z,100138.44
2022-08-17T04:33:27.423Z,100120.84
2022-08-17T04:36:00.009Z,100134.34
2022-08-17T04:38:32.477Z,100137.75
2022-08-17T04:41:21.291Z,100135.47
2022-08-17T04:43:51.605Z,100138.97
2022-08-17T04:46:27.365Z,100135.94
2022-08-17T04:48:58.278Z,100132.81
2022-08-17T04:51:31.248Z,100128.97
2022-08-17T04:54:02.072Z,100130.25
2022-08-17T04:56:33.014Z,100118.59
2022-08-17T04:59:04.715Z,100134.44
2022-08-17T05:01:58.155Z,100135.50
2022-08-17T05:05:21.718Z,100132.50
2022-08-17T05:07:52.613Z,100130.75
2022-08-17T05:10:21.514Z,100110.94
2022-08-17T05:12:59.900Z,100126.75
2022-08-17T05:15:44.752Z,100122.13
2022-08-17T05:18:13.982Z,100124.44
2022-08-17T05:20:44.181Z,100115.50
2022-08-17T05:23:17.826Z,100117.88
2022-08-17T05:25:49.762Z,100105.91
2022-08-17T05:28:23.465Z,100111.38
2022-08-17T05:30:57.349Z,100107.16
2022-08-17T05:33:33.529Z,100094.59
2022-08-17T05:36:03.657Z,100094.91
2022-08-17T05:38:35.084Z,100091.91
2022-08-17T05:41:05.817Z,100106.53
2022-08-17T05:43:36.833Z,100091.22
2022-08-17T05:46:09.101Z,100104.41
2022-08-17T05:48:43.081Z,100084.81
2022-08-17T05:51:44.358Z,100097.13
2022-08-17T05:55:10.822Z,100098.72
2022-08-17T05:57:56.269Z,100100.16
2022-08-17T06:00:30.782Z,100098.53
2022-08-17T06:03:17.241Z,100077.28
2022-08-17T06:06:03.896Z,100081.22
2022-08-17T06:08:36.326Z,100102.09
2022-08-17T06:11:12.131Z,100076.69
2022-08-17T06:14:02.009Z,100103.91
2022-08-17T06:16:36.866Z,100101.81
2022-08-17T06:19:16.740Z,100099.69
2022-08-17T06:21:48.307Z,100098.72
2022-08-17T06:24:37.183Z,100092.47
2022-08-17T06:27:17.889Z,100092.34
2022-08-17T06:29:52.496Z,100090.06
2022-08-17T06:32:23.355Z,100088.63
2022-08-17T06:35:28.838Z,100078.78
2022-08-17T06:38:05.466Z,100091.97
2022-08-17T06:40:53.621Z,100057.03
2022-08-17T06:43:49.220Z,100069.41
2022-08-17T06:46:25.493Z,100090.28
2022-08-17T06:49:07.560Z,100082.13
2022-08-17T06:51:40.893Z,100090.50
2022-08-17T06:54:37.150Z,100097.88
2022-08-17T06:57:14.953Z,100091.94
2022-08-17T07:03:37.806Z,100092.84
2022-08-17T07:06:12.424Z,100093.16
2022-08-17T07:08:49.951Z,100081.97
2022-08-17T07:11:21.899Z,100062.00
2022-08-17T07:14:04.355Z,100071.44
2022-08-17T07:16:40.197Z,100078.91
2022-08-17T07:23:00.602Z,100068.91
2022-08-17T07:25:30.783Z,100076.66
2022-08-17T07:28:02.627Z,100070.25
2022-08-17T07:30:47.089Z,100072.72
2022-08-17T07:33:24.399Z,100075.69
2022-08-17T07:35:55.620Z,100059.38
2022-08-17T07:38:28.702Z,100071.28
2022-08-17T07:41:04.797Z,100069.31
2022-08-17T07:43:36.227Z,100061.13
2022-08-17T07:46:32.883Z,100032.94
2022-08-17T07:52:50.797Z,100037.69
2022-08-17T07:55:31.041Z,100048.13
2022-08-17T07:58:00.470Z,100036.63
2022-08-17T08:00:32.466Z,100024.47
2022-08-17T08:03:20.506Z,100041.09
2022-08-17T08:05:54.699Z,100057.66
2022-08-17T08:08:33.990Z,100054.59
2022-08-17T08:11:08.586Z,100048.59
2022-08-17T08:13:42.621Z,100043.00
2022-08-17T08:16:25.106Z,100048.38
2022-08-17T08:28:20.769Z,100051.81
2022-08-17T08:30:52.189Z,100037.53
2022-08-17T08:33:34.315Z,100047.47
2022-08-17T08:36:08.790Z,100043.97
2022-08-17T08:38:43.502Z,100049.69
2022-08-17T08:46:26.121Z,100045.19
2022-08-17T08:53:04.521Z,100043.94
2022-08-17T08:55:47.905Z,100031.38
2022-08-17T08:58:31.870Z,100017.19
2022-08-17T09:01:17.033Z,100034.63
2022-08-17T09:13:21.535Z,100004.31
2022-08-17T09:15:58.472Z,100029.31
2022-08-17T09:19:00.285Z,100030.13
2022-08-17T09:21:25.870Z,100022.34
2022-08-17T09:24:01.912Z,100026.72
2022-08-17T09:26:35.401Z,100014.94
2022-08-17T09:32:55.451Z,100012.53
2022-08-17T09:35:32.921Z,100008.78
2022-08-17T09:38:16.395Z,100007.78
2022-08-17T09:40:50.655Z,99983.56
2022-08-17T09:43:30.733Z,100004.50
2022-08-17T09:46:04.280Z,100003.50
2022-08-17T09:48:39.086Z,100005.50
2022-08-17T09:51:58.074Z,100006.28
2022-08-17T09:55:40.345Z,100008.13
2022-08-17T09:58:16.745Z,100006.41
2022-08-17T10:00:53.240Z,100002.47
2022-08-17T10:03:50.965Z,99991.31
2022-08-17T10:06:24.047Z,99984.56
2022-08-17T10:09:04.677Z,99991.91
2022-08-17T10:11:50.460Z,99997.97
2022-08-17T10:15:34.265Z,99996.72
2022-08-17T10:18:18.107Z,99998.56
2022-08-17T10:21:19.698Z,99993.91
2022-08-17T10:24:07.960Z,99990.72
2022-08-17T10:26:46.205Z,99987.53
2022-08-17T10:30:43.896Z,99993.47
2022-08-17T10:33:18.702Z,99989.94
2022-08-17T10:35:53.578Z,99998.78
2022-08-17T10:38:36.629Z,99993.72
2022-08-17T10:41:16.029Z,99979.28
2022-08-17T10:43:57.928Z,99987.16
2022-08-17T10:48:04.310Z,99971.63
2022-08-17T10:51:08.949Z,99992.75
2022-08-17T10:57:42.003Z,99972.03
2022-08-17T11:00:19.116Z,99993.25
2022-08-17T11:02:51.116Z,99981.72
2022-08-17T11:05:36.362Z,99962.31
2022-08-17T11:09:00.117Z,99969.56
2022-08-17T11:11:47.649Z,99977.72
2022-08-17T11:18:38.541Z,99959.88
2022-08-17T11:21:25.379Z,99957.53
2022-08-17T11:24:10.598Z,99963.63
2022-08-17T11:26:46.929Z,99965.41
2022-08-17T11:30:05.679Z,99965.47
2022-08-17T11:32:47.525Z,99964.03
2022-08-17T11:35:33.820Z,99955.19
2022-08-17T11:38:16.303Z,99963.69
2022-08-17T11:41:04.639Z,99950.50
2022-08-17T11:44:06.232Z,99923.59
2022-08-17T11:48:09.517Z,99947.09
2022-08-17T11:51:11.090Z,99953.41
2022-08-17T11:58:03.709Z,99943.97
2022-08-17T12:00:54.932Z,99936.28
2022-08-17T12:03:55.662Z,99914.88
2022-08-17T12:06:36.422Z,99917.06
2022-08-17T12:12:56.517Z,99932.69
2022-08-17T12:15:31.805Z,99936.09
2022-08-17T12:18:01.347Z,99921.72
2022-08-17T12:21:07.024Z,99930.38
2022-08-17T12:23:44.180Z,99945.16
2022-08-17T12:26:19.669Z,99931.28
2022-08-17T12:28:51.851Z,99928.34
2022-08-17T12:31:23.443Z,99897.34
2022-08-17T12:33:53.328Z,99914.16
2022-08-17T12:36:26.079Z,99933.88
2022-08-17T12:39:12.808Z,99889.47
2022-08-17T12:42:23.928Z,99897.63
2022-08-17T12:45:24.420Z,99923.06
2022-08-17T12:48:02.874Z,99915.44
2022-08-17T12:50:32.340Z,99915.56
2022-08-17T12:53:02.637Z,99930.03
2022-08-17T12:55:40.217Z,99926.53
2022-08-17T12:58:19.097Z,99889.53
2022-08-17T13:00:53.945Z,99926.53
2022-08-17T13:03:36.388Z,99937.00
2022-08-17T13:06:07.498Z,99919.41
2022-08-17T13:08:38.405Z,99929.06
2022-08-17T13:11:13.465Z,99925.06
2022-08-17T13:13:43.968Z,99928.34
2022-08-17T13:16:20.865Z,99915.41
2022-08-17T13:18:51.351Z,99921.78
2022-08-17T13:21:27.655Z,99879.09
2022-08-17T13:23:58.618Z,99923.13
2022-08-17T13:26:32.774Z,99931.88
2022-08-17T13:29:04.089Z,99925.41
2022-08-17T13:31:51.829Z,99936.47
2022-08-17T13:34:34.315Z,99929.13
2022-08-17T13:37:33.055Z,99923.41
2022-08-17T13:40:29.296Z,99932.03
2022-08-17T13:42:59.044Z,99901.84
2022-08-17T13:45:44.676Z,99914.34
2022-08-17T13:48:25.337Z,99907.03
2022-08-17T13:51:15.098Z,99891.09
2022-08-17T13:53:57.869Z,99871.91
2022-08-17T13:56:31.710Z,99916.09
2022-08-17T13:59:08.730Z,99887.25
2022-08-17T14:01:47.469Z,99909.78
2022-08-17T14:05:33.548Z,99925.88
2022-08-17T14:08:08.316Z,99912.66
2022-08-17T14:10:40.318Z,99907.50
2022-08-17T14:13:09.480Z,99911.47
2022-08-17T14:15:55.754Z,99903.47
2022-08-17T14:18:55.438Z,99894.88
2022-08-17T14:21:17.538Z,99901.63
2022-08-17T14:23:54.423Z,99904.91
2022-08-17T14:29:19.592Z,99901.19
2022-08-17T14:31:54.507Z,99886.19
2022-08-17T14:35:39.257Z,99903.25
2022-08-17T14:38:08.616Z,99889.59
2022-08-17T14:41:29.232Z,99914.66
2022-08-17T14:44:02.048Z,99914.72
2022-08-17T14:46:55.588Z,99910.22
2022-08-17T14:50:37.348Z,99904.75
2022-08-17T14:53:11.353Z,99887.81
2022-08-17T14:56:05.731Z,99879.34
2022-08-17T14:58:34.481Z,99885.41
2022-08-17T15:01:32.028Z,99908.19
2022-08-17T15:04:07.185Z,99916.22
2022-08-17T15:07:00.932Z,99912.31
2022-08-17T15:10:20.267Z,99907.25
2022-08-17T15:12:49.389Z,99900.47
2022-08-17T15:15:19.232Z,99909.19
2022-08-17T15:17:51.802Z,99899.16
2022-08-17T15:20:28.965Z,99890.69
2022-08-17T15:22:59.346Z,99904.38
2022-08-17T15:25:53.705Z,99905.69
2022-08-17T15:28:24.068Z,99893.19
2022-08-17T15:30:57.322Z,99895.41
2022-08-17T15:33:31.981Z,99892.13
2022-08-17T15:36:06.601Z,99903.78
2022-08-17T15:38:36.991Z,99899.69
2022-08-17T15:41:05.655Z,99906.13
2022-08-17T15:43:34.991Z,99897.66
2022-08-17T15:49:09.933Z,99904.19
2022-08-17T15:52:16.968Z,99901.91
2022-08-17T15:55:13.333Z,99895.84
2022-08-17T15:57:45.990Z,99901.31
2022-08-17T16:00:53.124Z,99900.00
2022-08-17T16:04:01.278Z,99881.63
2022-08-17T16:06:19.985Z,99881.09
2022-08-17T16:08:51.862Z,99903.50
2022-08-17T16:11:26.454Z,99898.69
2022-08-17T16:13:56.157Z,99897.56
2022-08-17T16:16:29.176Z,99920.75
2022-08-17T16:18:59.365Z,99904.97
2022-08-17T16:21:42.448Z,99889.09
2022-08-17T16:24:15.009Z,99912.72
2022-08-17T16:26:46.904Z,99907.28
2022-08-17T16:29:15.557Z,99912.00
2022-08-17T16:31:44.251Z,99913.38
2022-08-17T16:34:15.727Z,99902.34
2022-08-17T16:37:40.216Z,99917.00
2022-08-17T16:40:43.558Z,99836.56
2022-08-17T16:43:37.983Z,99872.03
2022-08-17T16:46:08.661Z,99908.75
2022-08-17T16:48:37.319Z,99872.53
2022-08-17T16:51:06.204Z,99880.50
2022-08-17T16:53:36.539Z,99895.78
2022-08-17T16:56:10.337Z,99923.16
2022-08-17T16:58:41.182Z,99919.75
2022-08-17T17:01:39.001Z,99922.41
2022-08-17T17:04:10.865Z,99925.34
2022-08-17T17:07:42.111Z,99932.31
2022-08-17T17:10:40.369Z,99914.97
2022-08-17T17:13:14.596Z,99917.03
2022-08-17T17:15:55.651Z,99926.97
2022-08-17T17:18:29.718Z,99929.38
2022-08-17T18:43:53.152Z,99903.53
2022-08-17T18:46:30.573Z,99898.44
2022-08-17T18:49:03.095Z,99903.56
2022-08-17T18:51:41.715Z,99900.72
2022-08-17T18:54:20.932Z,99877.25
2022-08-17T18:56:57.247Z,99893.50
2022-08-17T18:59:36.980Z,99899.44
2022-08-17T19:02:43.861Z,99897.63
2022-08-17T19:05:14.596Z,99882.97
2022-08-17T19:07:46.769Z,99886.28
2022-08-17T19:10:21.877Z,99897.84
2022-08-17T19:12:55.218Z,99908.59
2022-08-17T19:15:40.436Z,99847.19
2022-08-17T19:18:15.520Z,99908.69
2022-08-17T19:20:47.256Z,99900.31
2022-08-17T19:23:21.871Z,99900.50
2022-08-17T19:25:52.625Z,99901.47
2022-08-17T19:28:25.464Z,99885.72
2022-08-17T19:30:59.624Z,99901.13
2022-08-17T19:33:28.716Z,99897.81
2022-08-17T19:36:03.418Z,99898.53
2022-08-17T19:38:42.799Z,99907.03
2022-08-17T19:41:17.920Z,99904.78
2022-08-17T19:44:32.862Z,99882.91
2022-08-17T19:47:08.816Z,99908.75
2022-08-17T19:49:47.044Z,99902.31
2022-08-17T19:52:41.953Z,99890.22
2022-08-17T19:55:20.598Z,99899.59
2022-08-17T19:58:00.144Z,99904.38
2022-08-17T20:00:31.369Z,99878.56
2022-08-17T20:03:05.923Z,99901.13
2022-08-17T20:05:54.604Z,99880.31
2022-08-17T20:08:28.097Z,99903.66
2022-08-17T20:11:01.135Z,99875.06
2022-08-17T20:13:35.122Z,99904.72
2022-08-17T20:16:05.038Z,99902.94
2022-08-17T20:18:44.055Z,99906.31
2022-08-17T20:21:20.854Z,99908.03
2022-08-17T20:23:54.874Z,99882.16
2022-08-17T20:26:27.022Z,99905.34
2022-08-17T20:29:37.268Z,99913.41
2022-08-17T20:32:25.696Z,99919.91
2022-08-17T20:35:11.152Z,99921.53
2022-08-17T20:37:43.301Z,99868.09
2022-08-17T20:40:36.614Z,99867.63
2022-08-17T20:43:59.221Z,99918.56
2022-08-17T20:47:02.046Z,99925.09
2022-08-17T20:49:42.409Z,99932.09
2022-08-17T20:52:13.584Z,99910.94
2022-08-17T20:54:51.272Z,99931.53
2022-08-17T20:57:49.128Z,99923.22
2022-08-17T21:00:45.871Z,99933.06
2022-08-17T21:03:52.353Z,99931.38
2022-08-17T21:06:26.819Z,99932.81
2022-08-17T21:08:59.119Z,99900.06
2022-08-17T21:12:04.210Z,99915.53
2022-08-17T21:14:56.303Z,99932.06
2022-08-17T21:17:51.573Z,99926.94
2022-08-17T21:20:32.563Z,99919.28
2022-08-17T21:23:23.669Z,99935.25
2022-08-17T21:26:10.924Z,99930.16
2022-08-17T21:28:59.895Z,99911.94
2022-08-17T21:31:35.416Z,99908.91
2022-08-17T21:34:25.989Z,99946.16
2022-08-17T21:36:54.565Z,99936.38
2022-08-17T21:39:33.774Z,99933.72
2022-08-17T21:42:02.584Z,99903.53
2022-08-17T21:44:35.723Z,99953.84
2022-08-17T21:47:16.724Z,99943.13
2022-08-17T21:49:45.396Z,99940.47
2022-08-17T21:52:15.148Z,99953.88
2022-08-17T21:54:52.731Z,99949.81
2022-08-17T21:57:23.909Z,99948.34
2022-08-17T21:59:54.934Z,99923.16
2022-08-17T22:02:26.312Z,99947.53
2022-08-17T22:05:00.849Z,99952.72
2022-08-17T22:07:38.861Z,99944.47
2022-08-17T22:10:27.442Z,99949.38
2022-08-17T22:13:16.511Z,99924.34
2022-08-17T22:15:47.837Z,99940.75
2022-08-17T22:18:21.256Z,99953.88
2022-08-17T22:20:52.274Z,99949.38
2022-08-17T22:23:45.278Z,99937.75
2022-08-17T22:26:18.207Z,99953.19
2022-08-17T22:28:49.726Z,99912.31
2022-08-17T22:31:19.830Z,99958.31
2022-08-17T22:33:49.987Z,99961.19
2022-08-17T22:36:24.824Z,99956.84
2022-08-17T22:38:55.509Z,99959.25
2022-08-17T22:41:34.944Z,99945.19
2022-08-17T22:44:14.244Z,99956.84
2022-08-17T22:46:52.132Z,99922.06
2022-08-17T22:49:29.348Z,99962.75
2022-08-17T22:52:11.003Z,99893.91
2022-08-17T22:54:57.526Z,99884.25
2022-08-17T22:57:46.234Z,99953.91
2022-08-17T23:00:33.922Z,99960.19
2022-08-17T23:03:09.261Z,99951.72
2022-08-17T23:05:39.285Z,99965.53
2022-08-17T23:08:08.041Z,99942.03
2022-08-17T23:10:37.609Z,99967.38
2022-08-17T23:13:11.966Z,99941.28
2022-08-17T23:15:41.473Z,99978.22
2022-08-17T23:18:10.270Z,99976.44
2022-08-17T23:20:40.830Z,99970.06
2022-08-17T23:23:10.198Z,99967.50
2022-08-17T23:25:39.324Z,99934.72
2022-08-17T23:28:09.252Z,99979.56
2022-08-17T23:30:41.091Z,99935.09
2022-08-17T23:33:12.105Z,99966.22
2022-08-17T23:35:41.196Z,99979.28
2022-08-17T23:38:10.887Z,99966.72
2022-08-17T23:40:39.994Z,99975.06
2022-08-17T23:43:24.584Z,99981.31
2022-08-17T23:45:55.448Z,99953.91
2022-08-17T23:48:28.417Z,99977.97
2022-08-17T23:51:09.219Z,99978.28
2022-08-17T23:53:38.987Z,99972.31
2022-08-17T23:56:11.315Z,99954.63
2022-08-17T23:58:43.397Z,99977.38
